Main page
METAR-TAF:

METAR-TAF

Airports :

Sligo Airport

Sligo, Ireland

latitude: 54-16-49N, longitude: 8-35-57W, elevation: 3 m

Current weather observation

The report was made 10 hours and 28 minutes ago, at 19:30 UTC
Wind 13 kt from the West
Temperature 6°C
Humidity 93%
Pressure 1018 hPa
Visibility: 6000 m
Few clouds at a height of 1300 ft
Scattered clouds at a height of 2100 ft
Broken clouds at a height of 4300 ft

METAR: EISG 161930Z 26013KT 6000 FEW013 SCT021 BKN043 06/05 Q1018

Time: 05:58 (05:58 UTC)

Forecast

The report was made 58 minutes ago, at 05:00 UTC
Forecast valid from 17 at 06 UTC to 17 at 15 UTC
Wind 15 kt from the West
Visibility 10 km or more
Scattered clouds at a height of 2500 ft
Broken clouds at a height of 4500 ft
Becoming
from 17 at 07 UTC to 17 at 09 UTC
Wind 13 kt from the West/Southwest

TAF: EISG 170500Z 1706/1715 27015KT 9999 SCT025 BKN045 BECMG 1707/1709 24013KT

Weather observations and forecasts of more than 4000 airports (METAR and TAF reports).

The available stations are represented by yellow and red dots on the map.

Hover mouse over dot to see the name of the station.

Then click to see weather observations and forecasts.

To change the map : click on the green buttons with a black cross to zoom in, on the green button with a dash to zoom out, or on the green arrows for adjacent maps.


METAR-TAF: